sensor_id;sensor_type;location;lat;lon;timestamp;P1;durP1;ratioP1;P2;durP2;ratioP2
2161;SDS011;1087;50.226;8.682;2023-01-19T00:01:20;11.53;;;10.33;;
2161;SDS011;1087;50.226;8.682;2023-01-19T00:03:46;13.13;;;10.50;;
2161;SDS011;1087;50.226;8.682;2023-01-19T00:06:11;11.90;;;9.67;;
2161;SDS011;1087;50.226;8.682;2023-01-19T00:08:37;13.57;;;10.73;;
2161;SDS011;1087;50.226;8.682;2023-01-19T00:11:03;12.90;;;10.80;;
2161;SDS011;1087;50.226;8.682;2023-01-19T00:13:29;11.50;;;9.30;;
2161;SDS011;1087;50.226;8.682;2023-01-19T00:15:55;11.60;;;10.37;;
2161;SDS011;1087;50.226;8.682;2023-01-19T00:18:21;14.30;;;10.30;;
2161;SDS011;1087;50.226;8.682;2023-01-19T00:20:46;15.70;;;10.97;;
2161;SDS011;1087;50.226;8.682;2023-01-19T00:23:13;13.50;;;10.70;;
2161;SDS011;1087;50.226;8.682;2023-01-19T00:25:39;11.53;;;9.30;;
2161;SDS011;1087;50.226;8.682;2023-01-19T00:28:09;14.40;;;9.50;;
2161;SDS011;1087;50.226;8.682;2023-01-19T00:30:35;12.53;;;10.00;;
2161;SDS011;1087;50.226;8.682;2023-01-19T00:33:02;16.50;;;11.17;;
2161;SDS011;1087;50.226;8.682;2023-01-19T00:35:28;13.87;;;11.03;;
2161;SDS011;1087;50.226;8.682;2023-01-19T00:37:54;13.47;;;9.07;;
2161;SDS011;1087;50.226;8.682;2023-01-19T00:40:20;12.27;;;9.77;;
2161;SDS011;1087;50.226;8.682;2023-01-19T00:42:46;14.60;;;11.37;;
2161;SDS011;1087;50.226;8.682;2023-01-19T00:45:16;10.97;;;9.00;;
2161;SDS011;1087;50.226;8.682;2023-01-19T00:47:43;17.10;;;10.20;;
2161;SDS011;1087;50.226;8.682;2023-01-19T00:50:10;11.73;;;10.27;;
2161;SDS011;1087;50.226;8.682;2023-01-19T00:52:37;14.23;;;10.80;;
2161;SDS011;1087;50.226;8.682;2023-01-19T00:55:04;14.10;;;11.03;;
2161;SDS011;1087;50.226;8.682;2023-01-19T00:57:31;16.90;;;11.23;;
2161;SDS011;1087;50.226;8.682;2023-01-19T00:59:57;12.53;;;10.53;;
2161;SDS011;1087;50.226;8.682;2023-01-19T01:02:22;11.67;;;9.50;;
2161;SDS011;1087;50.226;8.682;2023-01-19T01:04:48;10.97;;;9.53;;
2161;SDS011;1087;50.226;8.682;2023-01-19T01:07:18;12.60;;;9.40;;
2161;SDS011;1087;50.226;8.682;2023-01-19T01:09:45;14.17;;;10.53;;
2161;SDS011;1087;50.226;8.682;2023-01-19T01:12:10;13.00;;;9.60;;
2161;SDS011;1087;50.226;8.682;2023-01-19T01:14:36;14.77;;;10.30;;
2161;SDS011;1087;50.226;8.682;2023-01-19T01:17:01;10.20;;;9.10;;
2161;SDS011;1087;50.226;8.682;2023-01-19T01:19:27;12.17;;;9.70;;
2161;SDS011;1087;50.226;8.682;2023-01-19T01:21:53;16.60;;;10.70;;
2161;SDS011;1087;50.226;8.682;2023-01-19T01:24:19;14.17;;;11.70;;
2161;SDS011;1087;50.226;8.682;2023-01-19T01:26:45;12.07;;;9.10;;
2161;SDS011;1087;50.226;8.682;2023-01-19T01:29:10;11.30;;;9.40;;
2161;SDS011;1087;50.226;8.682;2023-01-19T01:31:36;15.00;;;9.73;;
2161;SDS011;1087;50.226;8.682;2023-01-19T01:34:01;14.97;;;10.80;;
2161;SDS011;1087;50.226;8.682;2023-01-19T01:36:27;13.23;;;9.60;;
2161;SDS011;1087;50.226;8.682;2023-01-19T01:38:56;12.07;;;9.47;;
2161;SDS011;1087;50.226;8.682;2023-01-19T01:41:22;12.77;;;10.10;;
2161;SDS011;1087;50.226;8.682;2023-01-19T01:43:49;13.10;;;10.47;;
2161;SDS011;1087;50.226;8.682;2023-01-19T01:46:22;14.63;;;10.90;;
2161;SDS011;1087;50.226;8.682;2023-01-19T01:49:05;22.60;;;14.00;;
2161;SDS011;1087;50.226;8.682;2023-01-19T01:54:12;20.90;;;11.90;;
2161;SDS011;1087;50.226;8.682;2023-01-19T01:56:50;18.10;;;11.00;;
2161;SDS011;1087;50.226;8.682;2023-01-19T01:59:22;15.03;;;11.53;;
2161;SDS011;1087;50.226;8.682;2023-01-19T02:01:52;13.37;;;10.67;;
2161;SDS011;1087;50.226;8.682;2023-01-19T02:04:42;12.63;;;10.10;;
2161;SDS011;1087;50.226;8.682;2023-01-19T02:07:13;12.50;;;9.90;;
2161;SDS011;1087;50.226;8.682;2023-01-19T02:10:02;15.83;;;10.67;;
2161;SDS011;1087;50.226;8.682;2023-01-19T02:12:46;16.63;;;11.50;;
2161;SDS011;1087;50.226;8.682;2023-01-19T02:15:31;16.60;;;11.40;;
2161;SDS011;1087;50.226;8.682;2023-01-19T02:17:56;15.43;;;11.40;;
2161;SDS011;1087;50.226;8.682;2023-01-19T02:20:22;15.93;;;11.30;;
2161;SDS011;1087;50.226;8.682;2023-01-19T02:22:51;14.17;;;10.77;;
2161;SDS011;1087;50.226;8.682;2023-01-19T02:25:20;13.20;;;9.30;;
2161;SDS011;1087;50.226;8.682;2023-01-19T02:27:45;14.07;;;10.13;;
2161;SDS011;1087;50.226;8.682;2023-01-19T02:30:12;15.93;;;10.20;;
2161;SDS011;1087;50.226;8.682;2023-01-19T02:32:38;20.87;;;11.20;;
2161;SDS011;1087;50.226;8.682;2023-01-19T02:35:04;14.50;;;10.17;;
2161;SDS011;1087;50.226;8.682;2023-01-19T02:37:31;14.63;;;11.23;;
2161;SDS011;1087;50.226;8.682;2023-01-19T02:40:01;11.93;;;10.20;;
2161;SDS011;1087;50.226;8.682;2023-01-19T02:42:30;13.20;;;10.50;;
2161;SDS011;1087;50.226;8.682;2023-01-19T02:45:00;12.97;;;10.50;;
2161;SDS011;1087;50.226;8.682;2023-01-19T02:47:36;12.37;;;10.10;;
2161;SDS011;1087;50.226;8.682;2023-01-19T02:50:27;12.97;;;9.77;;
2161;SDS011;1087;50.226;8.682;2023-01-19T02:55:34;13.23;;;9.73;;
2161;SDS011;1087;50.226;8.682;2023-01-19T03:00:48;13.43;;;10.73;;
2161;SDS011;1087;50.226;8.682;2023-01-19T03:06:05;11.50;;;9.93;;
2161;SDS011;1087;50.226;8.682;2023-01-19T03:11:16;14.80;;;10.63;;
2161;SDS011;1087;50.226;8.682;2023-01-19T03:14:18;13.40;;;10.23;;
2161;SDS011;1087;50.226;8.682;2023-01-19T03:16:43;16.60;;;10.43;;
2161;SDS011;1087;50.226;8.682;2023-01-19T03:21:56;16.33;;;11.67;;
2161;SDS011;1087;50.226;8.682;2023-01-19T03:24:24;13.17;;;11.13;;
2161;SDS011;1087;50.226;8.682;2023-01-19T03:26:55;18.27;;;11.77;;
2161;SDS011;1087;50.226;8.682;2023-01-19T03:29:27;13.40;;;9.77;;
2161;SDS011;1087;50.226;8.682;2023-01-19T03:31:54;13.93;;;11.07;;
2161;SDS011;1087;50.226;8.682;2023-01-19T03:34:23;17.37;;;11.00;;
2161;SDS011;1087;50.226;8.682;2023-01-19T03:36:50;13.87;;;10.70;;
2161;SDS011;1087;50.226;8.682;2023-01-19T03:39:21;14.10;;;10.80;;
2161;SDS011;1087;50.226;8.682;2023-01-19T03:41:49;14.70;;;11.43;;
2161;SDS011;1087;50.226;8.682;2023-01-19T03:44:18;14.13;;;10.80;;
2161;SDS011;1087;50.226;8.682;2023-01-19T03:46:45;12.93;;;10.30;;
2161;SDS011;1087;50.226;8.682;2023-01-19T03:49:12;11.70;;;9.83;;
2161;SDS011;1087;50.226;8.682;2023-01-19T03:51:38;13.20;;;10.87;;
2161;SDS011;1087;50.226;8.682;2023-01-19T03:54:05;16.53;;;11.23;;
2161;SDS011;1087;50.226;8.682;2023-01-19T03:56:31;14.60;;;12.30;;
2161;SDS011;1087;50.226;8.682;2023-01-19T03:58:57;15.67;;;12.53;;
2161;SDS011;1087;50.226;8.682;2023-01-19T04:01:22;12.43;;;10.70;;
2161;SDS011;1087;50.226;8.682;2023-01-19T04:03:49;12.67;;;11.40;;
2161;SDS011;1087;50.226;8.682;2023-01-19T04:06:15;12.50;;;10.60;;
2161;SDS011;1087;50.226;8.682;2023-01-19T04:08:41;13.80;;;11.17;;
2161;SDS011;1087;50.226;8.682;2023-01-19T04:11:07;21.03;;;11.60;;
2161;SDS011;1087;50.226;8.682;2023-01-19T04:13:33;14.93;;;12.63;;
2161;SDS011;1087;50.226;8.682;2023-01-19T04:16:00;16.23;;;11.00;;
2161;SDS011;1087;50.226;8.682;2023-01-19T04:18:27;16.33;;;11.13;;
2161;SDS011;1087;50.226;8.682;2023-01-19T04:20:54;16.13;;;13.23;;
2161;SDS011;1087;50.226;8.682;2023-01-19T04:23:19;20.40;;;12.47;;
2161;SDS011;1087;50.226;8.682;2023-01-19T04:25:45;16.27;;;12.03;;
2161;SDS011;1087;50.226;8.682;2023-01-19T04:28:11;14.20;;;11.50;;
2161;SDS011;1087;50.226;8.682;2023-01-19T04:30:36;13.83;;;12.40;;
2161;SDS011;1087;50.226;8.682;2023-01-19T04:33:02;16.53;;;13.10;;
2161;SDS011;1087;50.226;8.682;2023-01-19T04:35:27;16.57;;;12.60;;
2161;SDS011;1087;50.226;8.682;2023-01-19T04:37:53;16.10;;;13.50;;
2161;SDS011;1087;50.226;8.682;2023-01-19T04:40:18;12.30;;;11.00;;
2161;SDS011;1087;50.226;8.682;2023-01-19T04:42:44;14.10;;;12.30;;
2161;SDS011;1087;50.226;8.682;2023-01-19T04:45:11;14.80;;;11.20;;
2161;SDS011;1087;50.226;8.682;2023-01-19T04:47:37;13.00;;;11.60;;
2161;SDS011;1087;50.226;8.682;2023-01-19T04:50:03;13.50;;;11.40;;
2161;SDS011;1087;50.226;8.682;2023-01-19T04:52:30;13.13;;;11.73;;
2161;SDS011;1087;50.226;8.682;2023-01-19T04:55:00;15.67;;;11.40;;
2161;SDS011;1087;50.226;8.682;2023-01-19T04:57:26;17.70;;;13.17;;
2161;SDS011;1087;50.226;8.682;2023-01-19T04:59:54;14.80;;;12.50;;
2161;SDS011;1087;50.226;8.682;2023-01-19T05:02:20;15.37;;;12.63;;
2161;SDS011;1087;50.226;8.682;2023-01-19T05:04:46;13.90;;;11.80;;
2161;SDS011;1087;50.226;8.682;2023-01-19T05:07:12;15.07;;;11.40;;
2161;SDS011;1087;50.226;8.682;2023-01-19T05:09:37;15.17;;;12.93;;
2161;SDS011;1087;50.226;8.682;2023-01-19T05:12:03;15.57;;;12.10;;
2161;SDS011;1087;50.226;8.682;2023-01-19T05:14:29;17.93;;;14.13;;
2161;SDS011;1087;50.226;8.682;2023-01-19T05:16:55;12.57;;;11.33;;
2161;SDS011;1087;50.226;8.682;2023-01-19T05:19:20;14.13;;;11.87;;
2161;SDS011;1087;50.226;8.682;2023-01-19T05:21:46;16.00;;;12.47;;
2161;SDS011;1087;50.226;8.682;2023-01-19T05:24:12;11.73;;;10.33;;
2161;SDS011;1087;50.226;8.682;2023-01-19T05:26:37;14.37;;;12.90;;
2161;SDS011;1087;50.226;8.682;2023-01-19T05:29:03;15.20;;;12.40;;
2161;SDS011;1087;50.226;8.682;2023-01-19T05:31:29;13.53;;;11.30;;
2161;SDS011;1087;50.226;8.682;2023-01-19T05:33:54;13.90;;;11.77;;
2161;SDS011;1087;50.226;8.682;2023-01-19T05:36:20;17.00;;;11.07;;
2161;SDS011;1087;50.226;8.682;2023-01-19T05:38:45;14.17;;;10.77;;
2161;SDS011;1087;50.226;8.682;2023-01-19T05:41:11;16.53;;;12.40;;
2161;SDS011;1087;50.226;8.682;2023-01-19T05:43:36;12.33;;;10.57;;
2161;SDS011;1087;50.226;8.682;2023-01-19T05:46:02;15.90;;;12.10;;
2161;SDS011;1087;50.226;8.682;2023-01-19T05:48:29;17.77;;;13.37;;
2161;SDS011;1087;50.226;8.682;2023-01-19T05:50:58;13.57;;;11.77;;
2161;SDS011;1087;50.226;8.682;2023-01-19T05:53:25;16.70;;;12.80;;
2161;SDS011;1087;50.226;8.682;2023-01-19T05:55:51;16.33;;;12.60;;
2161;SDS011;1087;50.226;8.682;2023-01-19T05:58:17;16.70;;;13.80;;
2161;SDS011;1087;50.226;8.682;2023-01-19T06:00:43;14.03;;;12.53;;
2161;SDS011;1087;50.226;8.682;2023-01-19T06:03:08;16.10;;;12.80;;
2161;SDS011;1087;50.226;8.682;2023-01-19T06:05:34;16.87;;;12.00;;
2161;SDS011;1087;50.226;8.682;2023-01-19T06:08:01;16.60;;;13.60;;
2161;SDS011;1087;50.226;8.682;2023-01-19T06:10:27;16.23;;;13.43;;
2161;SDS011;1087;50.226;8.682;2023-01-19T06:12:53;14.60;;;13.10;;
2161;SDS011;1087;50.226;8.682;2023-01-19T06:15:18;17.03;;;13.40;;
2161;SDS011;1087;50.226;8.682;2023-01-19T06:17:44;16.10;;;13.13;;
2161;SDS011;1087;50.226;8.682;2023-01-19T06:20:09;14.90;;;12.90;;
2161;SDS011;1087;50.226;8.682;2023-01-19T06:22:37;18.23;;;13.57;;
2161;SDS011;1087;50.226;8.682;2023-01-19T06:25:03;18.70;;;13.97;;
2161;SDS011;1087;50.226;8.682;2023-01-19T06:27:29;18.60;;;14.40;;
2161;SDS011;1087;50.226;8.682;2023-01-19T06:29:54;15.23;;;13.63;;
2161;SDS011;1087;50.226;8.682;2023-01-19T06:32:20;17.57;;;12.97;;
2161;SDS011;1087;50.226;8.682;2023-01-19T06:34:45;16.00;;;13.73;;
2161;SDS011;1087;50.226;8.682;2023-01-19T06:37:11;19.77;;;13.40;;
2161;SDS011;1087;50.226;8.682;2023-01-19T06:39:37;18.53;;;14.27;;
2161;SDS011;1087;50.226;8.682;2023-01-19T06:42:05;22.17;;;14.27;;
2161;SDS011;1087;50.226;8.682;2023-01-19T06:44:31;17.03;;;14.77;;
2161;SDS011;1087;50.226;8.682;2023-01-19T06:46:57;22.37;;;16.43;;
2161;SDS011;1087;50.226;8.682;2023-01-19T06:49:22;17.07;;;14.30;;
2161;SDS011;1087;50.226;8.682;2023-01-19T06:51:48;18.43;;;13.50;;
2161;SDS011;1087;50.226;8.682;2023-01-19T06:54:14;19.93;;;14.10;;
2161;SDS011;1087;50.226;8.682;2023-01-19T06:56:39;18.37;;;15.53;;
2161;SDS011;1087;50.226;8.682;2023-01-19T06:59:05;21.90;;;15.43;;
2161;SDS011;1087;50.226;8.682;2023-01-19T07:01:30;20.20;;;16.57;;
2161;SDS011;1087;50.226;8.682;2023-01-19T07:03:56;21.53;;;16.90;;
2161;SDS011;1087;50.226;8.682;2023-01-19T07:06:22;18.80;;;15.80;;
2161;SDS011;1087;50.226;8.682;2023-01-19T07:08:47;18.30;;;14.63;;
2161;SDS011;1087;50.226;8.682;2023-01-19T07:11:13;17.20;;;15.40;;
2161;SDS011;1087;50.226;8.682;2023-01-19T07:13:39;19.30;;;13.67;;
2161;SDS011;1087;50.226;8.682;2023-01-19T07:16:08;17.60;;;15.40;;
2161;SDS011;1087;50.226;8.682;2023-01-19T07:18:36;17.90;;;14.17;;
2161;SDS011;1087;50.226;8.682;2023-01-19T07:21:03;19.00;;;14.70;;
2161;SDS011;1087;50.226;8.682;2023-01-19T07:23:29;18.63;;;14.63;;
2161;SDS011;1087;50.226;8.682;2023-01-19T07:25:55;26.30;;;15.73;;
2161;SDS011;1087;50.226;8.682;2023-01-19T07:28:21;16.50;;;14.17;;
2161;SDS011;1087;50.226;8.682;2023-01-19T07:30:51;18.70;;;14.37;;
2161;SDS011;1087;50.226;8.682;2023-01-19T07:33:17;19.80;;;14.90;;
2161;SDS011;1087;50.226;8.682;2023-01-19T07:35:46;16.83;;;14.90;;
2161;SDS011;1087;50.226;8.682;2023-01-19T07:38:15;19.17;;;15.57;;
2161;SDS011;1087;50.226;8.682;2023-01-19T07:40:42;17.00;;;13.67;;
2161;SDS011;1087;50.226;8.682;2023-01-19T07:43:08;18.47;;;15.47;;
2161;SDS011;1087;50.226;8.682;2023-01-19T07:45:34;15.27;;;13.33;;
2161;SDS011;1087;50.226;8.682;2023-01-19T07:48:00;19.07;;;14.23;;
2161;SDS011;1087;50.226;8.682;2023-01-19T07:50:26;18.13;;;14.70;;
2161;SDS011;1087;50.226;8.682;2023-01-19T07:52:53;19.33;;;14.40;;
2161;SDS011;1087;50.226;8.682;2023-01-19T07:55:19;18.77;;;15.47;;
2161;SDS011;1087;50.226;8.682;2023-01-19T07:57:49;20.67;;;15.53;;
2161;SDS011;1087;50.226;8.682;2023-01-19T08:00:19;15.80;;;13.40;;
2161;SDS011;1087;50.226;8.682;2023-01-19T08:02:48;17.60;;;15.33;;
2161;SDS011;1087;50.226;8.682;2023-01-19T08:05:15;16.93;;;15.20;;
2161;SDS011;1087;50.226;8.682;2023-01-19T08:07:42;19.40;;;14.70;;
2161;SDS011;1087;50.226;8.682;2023-01-19T08:10:09;17.77;;;14.77;;
2161;SDS011;1087;50.226;8.682;2023-01-19T08:12:36;19.07;;;14.00;;
2161;SDS011;1087;50.226;8.682;2023-01-19T08:15:02;21.03;;;14.77;;
2161;SDS011;1087;50.226;8.682;2023-01-19T08:17:28;18.13;;;13.70;;
2161;SDS011;1087;50.226;8.682;2023-01-19T08:19:54;21.73;;;14.07;;
2161;SDS011;1087;50.226;8.682;2023-01-19T08:22:19;20.37;;;15.53;;
2161;SDS011;1087;50.226;8.682;2023-01-19T08:24:45;16.47;;;13.77;;
2161;SDS011;1087;50.226;8.682;2023-01-19T08:27:10;18.77;;;15.20;;
2161;SDS011;1087;50.226;8.682;2023-01-19T08:29:36;18.33;;;15.33;;
2161;SDS011;1087;50.226;8.682;2023-01-19T08:32:02;17.33;;;14.87;;
2161;SDS011;1087;50.226;8.682;2023-01-19T08:34:28;24.87;;;15.47;;
2161;SDS011;1087;50.226;8.682;2023-01-19T08:36:55;18.07;;;13.37;;
2161;SDS011;1087;50.226;8.682;2023-01-19T08:39:21;16.77;;;13.80;;
2161;SDS011;1087;50.226;8.682;2023-01-19T08:41:48;21.77;;;13.67;;
2161;SDS011;1087;50.226;8.682;2023-01-19T08:44:14;19.47;;;13.90;;
2161;SDS011;1087;50.226;8.682;2023-01-19T08:46:40;17.43;;;14.93;;
2161;SDS011;1087;50.226;8.682;2023-01-19T08:49:05;20.27;;;13.73;;
2161;SDS011;1087;50.226;8.682;2023-01-19T08:51:31;18.50;;;13.90;;
2161;SDS011;1087;50.226;8.682;2023-01-19T08:53:57;16.70;;;13.10;;
2161;SDS011;1087;50.226;8.682;2023-01-19T08:56:22;14.67;;;12.40;;
2161;SDS011;1087;50.226;8.682;2023-01-19T08:58:48;18.90;;;13.87;;
2161;SDS011;1087;50.226;8.682;2023-01-19T09:01:14;16.60;;;14.80;;
2161;SDS011;1087;50.226;8.682;2023-01-19T09:03:41;16.17;;;14.50;;
2161;SDS011;1087;50.226;8.682;2023-01-19T09:06:07;20.07;;;14.20;;
2161;SDS011;1087;50.226;8.682;2023-01-19T09:08:34;16.23;;;13.87;;
2161;SDS011;1087;50.226;8.682;2023-01-19T09:11:00;18.87;;;14.43;;
2161;SDS011;1087;50.226;8.682;2023-01-19T09:13:25;17.47;;;14.00;;
2161;SDS011;1087;50.226;8.682;2023-01-19T09:15:51;18.00;;;14.93;;
2161;SDS011;1087;50.226;8.682;2023-01-19T09:18:18;14.60;;;12.73;;
2161;SDS011;1087;50.226;8.682;2023-01-19T09:20:46;17.30;;;13.63;;
2161;SDS011;1087;50.226;8.682;2023-01-19T09:23:15;18.70;;;13.97;;
2161;SDS011;1087;50.226;8.682;2023-01-19T09:25:43;17.10;;;14.73;;
2161;SDS011;1087;50.226;8.682;2023-01-19T09:28:10;18.00;;;13.70;;
2161;SDS011;1087;50.226;8.682;2023-01-19T09:30:38;17.63;;;13.57;;
2161;SDS011;1087;50.226;8.682;2023-01-19T09:33:06;17.63;;;14.60;;
2161;SDS011;1087;50.226;8.682;2023-01-19T09:35:35;17.63;;;12.23;;
2161;SDS011;1087;50.226;8.682;2023-01-19T09:38:01;18.03;;;12.33;;
2161;SDS011;1087;50.226;8.682;2023-01-19T09:40:28;18.93;;;12.77;;
2161;SDS011;1087;50.226;8.682;2023-01-19T09:43:03;15.83;;;12.20;;
2161;SDS011;1087;50.226;8.682;2023-01-19T09:45:45;18.80;;;12.20;;
2161;SDS011;1087;50.226;8.682;2023-01-19T09:48:20;17.17;;;12.67;;
2161;SDS011;1087;50.226;8.682;2023-01-19T09:50:55;14.70;;;11.50;;
2161;SDS011;1087;50.226;8.682;2023-01-19T09:53:32;15.47;;;11.13;;
2161;SDS011;1087;50.226;8.682;2023-01-19T09:56:15;12.80;;;11.40;;
2161;SDS011;1087;50.226;8.682;2023-01-19T09:58:42;16.60;;;12.60;;
2161;SDS011;1087;50.226;8.682;2023-01-19T10:01:13;17.40;;;12.53;;
2161;SDS011;1087;50.226;8.682;2023-01-19T10:03:50;14.33;;;11.97;;
2161;SDS011;1087;50.226;8.682;2023-01-19T10:06:29;14.80;;;11.87;;
2161;SDS011;1087;50.226;8.682;2023-01-19T10:08:59;17.43;;;12.50;;
2161;SDS011;1087;50.226;8.682;2023-01-19T10:11:56;14.00;;;11.20;;
2161;SDS011;1087;50.226;8.682;2023-01-19T10:14:30;17.83;;;12.63;;
2161;SDS011;1087;50.226;8.682;2023-01-19T10:19:46;13.80;;;11.87;;
2161;SDS011;1087;50.226;8.682;2023-01-19T10:22:19;17.77;;;12.73;;
2161;SDS011;1087;50.226;8.682;2023-01-19T10:24:51;17.30;;;12.50;;
2161;SDS011;1087;50.226;8.682;2023-01-19T10:27:24;16.80;;;12.67;;
2161;SDS011;1087;50.226;8.682;2023-01-19T10:29:53;16.53;;;12.50;;
2161;SDS011;1087;50.226;8.682;2023-01-19T10:32:28;17.47;;;13.77;;
2161;SDS011;1087;50.226;8.682;2023-01-19T10:34:59;16.27;;;12.77;;
2161;SDS011;1087;50.226;8.682;2023-01-19T10:37:38;16.50;;;12.90;;
2161;SDS011;1087;50.226;8.682;2023-01-19T10:42:34;19.80;;;13.90;;
2161;SDS011;1087;50.226;8.682;2023-01-19T10:45:00;15.73;;;13.70;;
2161;SDS011;1087;50.226;8.682;2023-01-19T10:47:29;18.40;;;12.80;;
2161;SDS011;1087;50.226;8.682;2023-01-19T10:49:58;18.90;;;13.50;;
2161;SDS011;1087;50.226;8.682;2023-01-19T10:52:28;16.73;;;13.20;;
2161;SDS011;1087;50.226;8.682;2023-01-19T10:54:56;17.70;;;13.93;;
2161;SDS011;1087;50.226;8.682;2023-01-19T10:57:30;17.70;;;14.30;;
2161;SDS011;1087;50.226;8.682;2023-01-19T11:00:00;17.70;;;15.10;;
2161;SDS011;1087;50.226;8.682;2023-01-19T11:02:27;15.60;;;13.67;;
2161;SDS011;1087;50.226;8.682;2023-01-19T11:05:01;18.00;;;13.63;;
2161;SDS011;1087;50.226;8.682;2023-01-19T11:07:47;17.43;;;13.90;;
2161;SDS011;1087;50.226;8.682;2023-01-19T11:15:33;17.43;;;12.97;;
2161;SDS011;1087;50.226;8.682;2023-01-19T11:18:05;14.67;;;12.00;;
2161;SDS011;1087;50.226;8.682;2023-01-19T11:20:38;16.63;;;11.90;;
2161;SDS011;1087;50.226;8.682;2023-01-19T11:23:20;17.70;;;13.30;;
2161;SDS011;1087;50.226;8.682;2023-01-19T11:25:48;12.93;;;10.73;;
2161;SDS011;1087;50.226;8.682;2023-01-19T11:28:19;13.53;;;10.33;;
2161;SDS011;1087;50.226;8.682;2023-01-19T11:30:58;13.57;;;9.67;;
2161;SDS011;1087;50.226;8.682;2023-01-19T11:36:13;17.03;;;11.00;;
2161;SDS011;1087;50.226;8.682;2023-01-19T11:38:45;11.10;;;9.57;;
2161;SDS011;1087;50.226;8.682;2023-01-19T11:41:18;11.40;;;9.20;;
2161;SDS011;1087;50.226;8.682;2023-01-19T11:43:47;9.90;;;8.73;;
2161;SDS011;1087;50.226;8.682;2023-01-19T11:46:15;10.60;;;9.03;;
2161;SDS011;1087;50.226;8.682;2023-01-19T11:48:45;13.90;;;9.37;;
2161;SDS011;1087;50.226;8.682;2023-01-19T11:51:22;11.80;;;9.03;;
2161;SDS011;1087;50.226;8.682;2023-01-19T11:53:51;11.77;;;9.20;;
2161;SDS011;1087;50.226;8.682;2023-01-19T11:56:17;12.47;;;9.73;;
2161;SDS011;1087;50.226;8.682;2023-01-19T11:58:50;10.77;;;9.67;;
2161;SDS011;1087;50.226;8.682;2023-01-19T12:01:17;13.70;;;9.70;;
2161;SDS011;1087;50.226;8.682;2023-01-19T12:03:53;12.20;;;10.87;;
2161;SDS011;1087;50.226;8.682;2023-01-19T12:06:26;14.47;;;9.50;;
2161;SDS011;1087;50.226;8.682;2023-01-19T12:09:10;12.40;;;10.13;;
2161;SDS011;1087;50.226;8.682;2023-01-19T12:11:57;11.13;;;9.60;;
2161;SDS011;1087;50.226;8.682;2023-01-19T12:14:30;10.07;;;8.93;;
2161;SDS011;1087;50.226;8.682;2023-01-19T12:17:02;10.10;;;8.93;;
2161;SDS011;1087;50.226;8.682;2023-01-19T12:22:17;11.13;;;9.53;;
2161;SDS011;1087;50.226;8.682;2023-01-19T12:25:11;10.23;;;8.97;;
2161;SDS011;1087;50.226;8.682;2023-01-19T12:27:40;9.90;;;8.03;;
2161;SDS011;1087;50.226;8.682;2023-01-19T12:30:27;10.27;;;9.13;;
2161;SDS011;1087;50.226;8.682;2023-01-19T12:35:55;10.23;;;8.80;;
2161;SDS011;1087;50.226;8.682;2023-01-19T12:38:38;11.87;;;8.40;;
2161;SDS011;1087;50.226;8.682;2023-01-19T12:41:21;11.70;;;8.83;;
2161;SDS011;1087;50.226;8.682;2023-01-19T12:43:48;12.23;;;8.40;;
2161;SDS011;1087;50.226;8.682;2023-01-19T12:49:05;12.10;;;8.67;;
2161;SDS011;1087;50.226;8.682;2023-01-19T12:51:36;12.40;;;8.00;;
2161;SDS011;1087;50.226;8.682;2023-01-19T12:54:03;10.30;;;8.57;;
2161;SDS011;1087;50.226;8.682;2023-01-19T12:56:31;10.80;;;8.80;;
2161;SDS011;1087;50.226;8.682;2023-01-19T12:58:59;10.70;;;9.47;;
2161;SDS011;1087;50.226;8.682;2023-01-19T13:01:25;9.50;;;8.47;;
2161;SDS011;1087;50.226;8.682;2023-01-19T13:04:01;11.00;;;8.60;;
2161;SDS011;1087;50.226;8.682;2023-01-19T13:09:32;16.63;;;9.10;;
2161;SDS011;1087;50.226;8.682;2023-01-19T13:14:45;13.20;;;8.47;;
2161;SDS011;1087;50.226;8.682;2023-01-19T13:19:50;9.43;;;8.53;;
2161;SDS011;1087;50.226;8.682;2023-01-19T13:25:13;10.50;;;8.60;;
2161;SDS011;1087;50.226;8.682;2023-01-19T13:27:54;10.53;;;8.60;;
2161;SDS011;1087;50.226;8.682;2023-01-19T13:30:20;14.73;;;9.43;;
2161;SDS011;1087;50.226;8.682;2023-01-19T13:32:50;11.63;;;9.80;;
2161;SDS011;1087;50.226;8.682;2023-01-19T13:35:18;10.23;;;8.63;;
2161;SDS011;1087;50.226;8.682;2023-01-19T13:37:45;13.07;;;9.33;;
2161;SDS011;1087;50.226;8.682;2023-01-19T13:40:20;12.33;;;9.70;;
2161;SDS011;1087;50.226;8.682;2023-01-19T13:42:47;10.73;;;9.27;;
2161;SDS011;1087;50.226;8.682;2023-01-19T13:45:16;12.13;;;8.60;;
2161;SDS011;1087;50.226;8.682;2023-01-19T13:47:52;11.47;;;9.60;;
2161;SDS011;1087;50.226;8.682;2023-01-19T13:50:21;11.30;;;9.50;;
2161;SDS011;1087;50.226;8.682;2023-01-19T13:52:48;10.17;;;9.17;;
2161;SDS011;1087;50.226;8.682;2023-01-19T13:55:15;13.13;;;9.53;;
2161;SDS011;1087;50.226;8.682;2023-01-19T13:57:42;13.10;;;9.30;;
2161;SDS011;1087;50.226;8.682;2023-01-19T14:02:41;12.40;;;9.63;;
2161;SDS011;1087;50.226;8.682;2023-01-19T14:05:24;13.03;;;10.63;;
2161;SDS011;1087;50.226;8.682;2023-01-19T14:08:00;13.60;;;9.73;;
2161;SDS011;1087;50.226;8.682;2023-01-19T14:10:32;10.97;;;9.77;;
2161;SDS011;1087;50.226;8.682;2023-01-19T14:15:40;15.80;;;11.10;;
2161;SDS011;1087;50.226;8.682;2023-01-19T14:18:07;18.87;;;11.40;;
2161;SDS011;1087;50.226;8.682;2023-01-19T14:20:36;10.23;;;9.10;;
2161;SDS011;1087;50.226;8.682;2023-01-19T14:23:01;11.63;;;9.90;;
2161;SDS011;1087;50.226;8.682;2023-01-19T14:31:00;18.30;;;11.60;;
2161;SDS011;1087;50.226;8.682;2023-01-19T14:33:35;12.20;;;10.20;;
2161;SDS011;1087;50.226;8.682;2023-01-19T14:38:41;10.30;;;8.80;;
2161;SDS011;1087;50.226;8.682;2023-01-19T14:44:06;12.40;;;9.70;;
2161;SDS011;1087;50.226;8.682;2023-01-19T14:46:43;11.53;;;9.73;;
2161;SDS011;1087;50.226;8.682;2023-01-19T14:51:57;10.90;;;9.20;;
2161;SDS011;1087;50.226;8.682;2023-01-19T14:54:27;9.90;;;8.90;;
2161;SDS011;1087;50.226;8.682;2023-01-19T14:56:59;9.00;;;8.10;;
2161;SDS011;1087;50.226;8.682;2023-01-19T14:59:25;10.70;;;8.63;;
2161;SDS011;1087;50.226;8.682;2023-01-19T15:01:52;9.93;;;8.63;;
2161;SDS011;1087;50.226;8.682;2023-01-19T15:04:18;16.40;;;10.17;;
2161;SDS011;1087;50.226;8.682;2023-01-19T15:06:44;12.70;;;9.70;;
2161;SDS011;1087;50.226;8.682;2023-01-19T15:09:11;15.73;;;10.37;;
2161;SDS011;1087;50.226;8.682;2023-01-19T15:11:37;10.37;;;9.27;;
2161;SDS011;1087;50.226;8.682;2023-01-19T15:14:04;19.23;;;11.40;;
2161;SDS011;1087;50.226;8.682;2023-01-19T15:16:30;12.63;;;11.33;;
2161;SDS011;1087;50.226;8.682;2023-01-19T15:18:58;12.00;;;10.10;;
2161;SDS011;1087;50.226;8.682;2023-01-19T15:21:24;14.33;;;11.23;;
2161;SDS011;1087;50.226;8.682;2023-01-19T15:23:52;13.30;;;11.17;;
2161;SDS011;1087;50.226;8.682;2023-01-19T15:26:19;11.93;;;10.20;;
2161;SDS011;1087;50.226;8.682;2023-01-19T15:28:46;15.13;;;10.63;;
2161;SDS011;1087;50.226;8.682;2023-01-19T15:31:16;11.43;;;10.03;;
2161;SDS011;1087;50.226;8.682;2023-01-19T15:33:44;14.97;;;10.40;;
2161;SDS011;1087;50.226;8.682;2023-01-19T15:36:13;12.47;;;10.13;;
2161;SDS011;1087;50.226;8.682;2023-01-19T15:38:41;11.53;;;10.23;;
2161;SDS011;1087;50.226;8.682;2023-01-19T15:41:18;13.07;;;9.80;;
2161;SDS011;1087;50.226;8.682;2023-01-19T15:43:47;11.97;;;9.67;;
2161;SDS011;1087;50.226;8.682;2023-01-19T15:46:13;14.10;;;9.53;;
2161;SDS011;1087;50.226;8.682;2023-01-19T15:48:39;15.97;;;9.70;;
2161;SDS011;1087;50.226;8.682;2023-01-19T15:51:09;12.93;;;9.83;;
2161;SDS011;1087;50.226;8.682;2023-01-19T15:53:39;17.67;;;10.57;;
2161;SDS011;1087;50.226;8.682;2023-01-19T15:56:09;13.40;;;9.67;;
2161;SDS011;1087;50.226;8.682;2023-01-19T15:58:47;13.17;;;10.60;;
2161;SDS011;1087;50.226;8.682;2023-01-19T16:01:13;13.17;;;10.93;;
2161;SDS011;1087;50.226;8.682;2023-01-19T16:03:44;12.30;;;10.53;;
2161;SDS011;1087;50.226;8.682;2023-01-19T16:06:10;13.30;;;11.33;;
2161;SDS011;1087;50.226;8.682;2023-01-19T16:08:37;17.70;;;11.57;;